sensor_id;sensor_type;location;lat;lon;timestamp;pressure;altitude;pressure_sealevel;temperature;humidity
36798;BME280;22748;8.426;99.512;2023-04-05T00:01:55;100591.91;;;30.66;59.24
36798;BME280;22748;8.426;99.512;2023-04-05T00:04:29;100606.41;;;30.65;59.76
36798;BME280;22748;8.426;99.512;2023-04-05T00:07:02;100607.69;;;30.63;60.02
36798;BME280;22748;8.426;99.512;2023-04-05T00:09:35;100611.41;;;30.62;59.74
36798;BME280;22748;8.426;99.512;2023-04-05T00:12:08;100613.94;;;30.57;59.80
36798;BME280;22748;8.426;99.512;2023-04-05T00:14:50;100617.47;;;30.57;59.71
36798;BME280;22748;8.426;99.512;2023-04-05T00:17:25;100625.19;;;30.53;60.21
36798;BME280;22748;8.426;99.512;2023-04-05T00:19:57;100630.56;;;30.53;60.38
36798;BME280;22748;8.426;99.512;2023-04-05T00:22:28;100629.31;;;30.56;60.42
36798;BME280;22748;8.426;99.512;2023-04-05T00:25:03;100636.13;;;30.59;60.22
36798;BME280;22748;8.426;99.512;2023-04-05T00:27:36;100636.13;;;30.59;60.50
36798;BME280;22748;8.426;99.512;2023-04-05T00:30:12;100649.13;;;30.62;60.51
36798;BME280;22748;8.426;99.512;2023-04-05T00:32:48;100649.13;;;30.62;60.36
36798;BME280;22748;8.426;99.512;2023-04-05T00:35:20;100651.84;;;30.62;60.37
36798;BME280;22748;8.426;99.512;2023-04-05T00:37:49;100665.75;;;30.59;59.65
36798;BME280;22748;8.426;99.512;2023-04-05T00:40:21;100663.28;;;30.57;60.34
36798;BME280;22748;8.426;99.512;2023-04-05T00:42:54;100674.91;;;30.58;60.54
36798;BME280;22748;8.426;99.512;2023-04-05T00:45:24;100671.16;;;30.59;60.54
36798;BME280;22748;8.426;99.512;2023-04-05T00:47:55;100680.06;;;30.59;60.66
36798;BME280;22748;8.426;99.512;2023-04-05T00:50:28;100685.69;;;30.58;60.25
36798;BME280;22748;8.426;99.512;2023-04-05T00:53:00;100685.84;;;30.63;61.09
36798;BME280;22748;8.426;99.512;2023-04-05T00:55:33;100695.97;;;30.67;60.74
36798;BME280;22748;8.426;99.512;2023-04-05T00:58:06;100690.97;;;30.71;60.60
36798;BME280;22748;8.426;99.512;2023-04-05T01:00:38;100705.47;;;30.70;60.65
36798;BME280;22748;8.426;99.512;2023-04-05T01:03:15;100707.56;;;30.68;61.04
36798;BME280;22748;8.426;99.512;2023-04-05T01:05:56;100711.09;;;30.68;61.14
36798;BME280;22748;8.426;99.512;2023-04-05T01:08:44;100711.88;;;30.75;60.94
36798;BME280;22748;8.426;99.512;2023-04-05T01:11:16;100713.69;;;30.82;60.84
36798;BME280;22748;8.426;99.512;2023-04-05T01:13:56;100716.56;;;30.87;61.34
36798;BME280;22748;8.426;99.512;2023-04-05T01:16:32;100725.66;;;30.92;61.14
36798;BME280;22748;8.426;99.512;2023-04-05T01:19:05;100729.56;;;30.96;60.49
36798;BME280;22748;8.426;99.512;2023-04-05T01:21:50;100726.44;;;31.00;60.67
36798;BME280;22748;8.426;99.512;2023-04-05T01:24:32;100729.28;;;31.05;60.57
36798;BME280;22748;8.426;99.512;2023-04-05T01:27:17;100723.66;;;31.06;60.74
36798;BME280;22748;8.426;99.512;2023-04-05T01:30:03;100729.94;;;31.00;61.12
36798;BME280;22748;8.426;99.512;2023-04-05T01:32:42;100736.16;;;31.01;60.95
36798;BME280;22748;8.426;99.512;2023-04-05T01:35:20;100731.38;;;31.03;60.80
36798;BME280;22748;8.426;99.512;2023-04-05T01:37:56;100741.13;;;31.04;60.25
36798;BME280;22748;8.426;99.512;2023-04-05T01:40:30;100747.13;;;31.06;60.44
36798;BME280;22748;8.426;99.512;2023-04-05T01:43:02;100742.94;;;31.10;60.32
36798;BME280;22748;8.426;99.512;2023-04-05T01:45:35;100750.13;;;31.16;60.57
36798;BME280;22748;8.426;99.512;2023-04-05T01:48:05;100754.28;;;31.19;60.31
36798;BME280;22748;8.426;99.512;2023-04-05T01:50:37;100759.00;;;31.23;60.33
36798;BME280;22748;8.426;99.512;2023-04-05T01:53:08;100766.22;;;31.29;60.02
36798;BME280;22748;8.426;99.512;2023-04-05T01:55:42;100770.09;;;31.33;59.72
36798;BME280;22748;8.426;99.512;2023-04-05T01:58:12;100772.38;;;31.36;59.21
36798;BME280;22748;8.426;99.512;2023-04-05T02:00:45;100767.19;;;31.35;59.92
36798;BME280;22748;8.426;99.512;2023-04-05T02:03:15;100766.38;;;31.34;59.81
36798;BME280;22748;8.426;99.512;2023-04-05T02:05:45;100776.34;;;31.34;59.76
36798;BME280;22748;8.426;99.512;2023-04-05T02:08:19;100771.09;;;31.39;59.50
36798;BME280;22748;8.426;99.512;2023-04-05T02:10:52;100778.38;;;31.39;59.40
36798;BME280;22748;8.426;99.512;2023-04-05T02:13:24;100773.38;;;31.42;59.48
36798;BME280;22748;8.426;99.512;2023-04-05T02:15:58;100774.41;;;31.41;58.69
36798;BME280;22748;8.426;99.512;2023-04-05T02:18:28;100770.28;;;31.39;58.64
36798;BME280;22748;8.426;99.512;2023-04-05T02:21:03;100782.09;;;31.37;58.98
36798;BME280;22748;8.426;99.512;2023-04-05T02:23:35;100775.22;;;31.42;59.15
36798;BME280;22748;8.426;99.512;2023-04-05T02:26:14;100776.66;;;31.44;58.98
36798;BME280;22748;8.426;99.512;2023-04-05T02:28:47;100784.06;;;31.55;58.51
36798;BME280;22748;8.426;99.512;2023-04-05T02:31:21;100784.81;;;31.63;58.44
36798;BME280;22748;8.426;99.512;2023-04-05T02:33:53;100786.69;;;31.62;58.66
36798;BME280;22748;8.426;99.512;2023-04-05T02:36:30;100785.19;;;31.66;58.28
36798;BME280;22748;8.426;99.512;2023-04-05T02:39:00;100782.63;;;31.71;58.36
36798;BME280;22748;8.426;99.512;2023-04-05T02:41:47;100779.72;;;31.73;58.64
36798;BME280;22748;8.426;99.512;2023-04-05T02:44:19;100778.03;;;31.72;58.59
36798;BME280;22748;8.426;99.512;2023-04-05T02:46:52;100775.13;;;31.73;58.34
36798;BME280;22748;8.426;99.512;2023-04-05T02:49:23;100778.78;;;31.79;58.09
36798;BME280;22748;8.426;99.512;2023-04-05T02:51:54;100780.84;;;31.84;57.67
36798;BME280;22748;8.426;99.512;2023-04-05T02:54:25;100787.28;;;31.83;58.15
36798;BME280;22748;8.426;99.512;2023-04-05T02:56:56;100781.41;;;31.86;57.66
36798;BME280;22748;8.426;99.512;2023-04-05T02:59:29;100777.22;;;31.90;57.81
36798;BME280;22748;8.426;99.512;2023-04-05T03:02:01;100775.13;;;31.92;57.47
36798;BME280;22748;8.426;99.512;2023-04-05T03:04:33;100771.97;;;31.95;57.45
36798;BME280;22748;8.426;99.512;2023-04-05T03:07:06;100778.59;;;31.99;57.37
36798;BME280;22748;8.426;99.512;2023-04-05T03:09:44;100776.03;;;32.04;57.66
36798;BME280;22748;8.426;99.512;2023-04-05T03:12:15;100777.31;;;32.02;57.66
36798;BME280;22748;8.426;99.512;2023-04-05T03:14:46;100773.94;;;32.06;57.16
36798;BME280;22748;8.426;99.512;2023-04-05T03:17:19;100779.25;;;32.13;57.18
36798;BME280;22748;8.426;99.512;2023-04-05T03:19:50;100775.41;;;32.21;56.83
36798;BME280;22748;8.426;99.512;2023-04-05T03:22:19;100766.25;;;32.22;56.93
36798;BME280;22748;8.426;99.512;2023-04-05T03:24:51;100772.38;;;32.29;56.64
36798;BME280;22748;8.426;99.512;2023-04-05T03:27:25;100776.88;;;32.35;57.04
36798;BME280;22748;8.426;99.512;2023-04-05T03:29:56;100766.78;;;32.42;56.93
36798;BME280;22748;8.426;99.512;2023-04-05T03:32:29;100772.09;;;32.49;57.01
36798;BME280;22748;8.426;99.512;2023-04-05T03:35:00;100769.59;;;32.54;56.78
36798;BME280;22748;8.426;99.512;2023-04-05T03:37:31;100762.06;;;32.56;56.51
36798;BME280;22748;8.426;99.512;2023-04-05T03:40:02;100758.66;;;32.61;56.38
36798;BME280;22748;8.426;99.512;2023-04-05T03:42:36;100754.44;;;32.65;56.06
36798;BME280;22748;8.426;99.512;2023-04-05T03:45:08;100750.22;;;32.69;56.13
36798;BME280;22748;8.426;99.512;2023-04-05T03:47:42;100745.16;;;32.72;55.25
36798;BME280;22748;8.426;99.512;2023-04-05T03:50:13;100745.75;;;32.74;55.40
36798;BME280;22748;8.426;99.512;2023-04-05T03:52:44;100741.16;;;32.75;55.00
36798;BME280;22748;8.426;99.512;2023-04-05T03:55:13;100738.94;;;32.72;55.49
36798;BME280;22748;8.426;99.512;2023-04-05T03:57:45;100727.19;;;32.78;54.91
36798;BME280;22748;8.426;99.512;2023-04-05T04:00:16;100726.59;;;32.76;55.16
36798;BME280;22748;8.426;99.512;2023-04-05T04:03:00;100731.41;;;32.74;55.31
36798;BME280;22748;8.426;99.512;2023-04-05T04:05:31;100724.81;;;32.82;55.14
36798;BME280;22748;8.426;99.512;2023-04-05T04:08:06;100721.78;;;32.90;55.01
36798;BME280;22748;8.426;99.512;2023-04-05T04:10:48;100716.50;;;32.95;55.08
36798;BME280;22748;8.426;99.512;2023-04-05T04:13:18;100716.72;;;32.93;54.46
36798;BME280;22748;8.426;99.512;2023-04-05T04:16:01;100713.22;;;32.93;55.03
36798;BME280;22748;8.426;99.512;2023-04-05T04:18:40;100708.13;;;32.96;54.83
36798;BME280;22748;8.426;99.512;2023-04-05T04:21:14;100703.91;;;33.00;54.68
36798;BME280;22748;8.426;99.512;2023-04-05T04:23:46;100703.00;;;33.07;54.49
36798;BME280;22748;8.426;99.512;2023-04-05T04:26:18;100692.19;;;33.07;54.54
36798;BME280;22748;8.426;99.512;2023-04-05T04:28:56;100704.28;;;33.04;54.58
36798;BME280;22748;8.426;99.512;2023-04-05T04:31:28;100698.75;;;33.11;54.07
36798;BME280;22748;8.426;99.512;2023-04-05T04:34:13;100697.25;;;33.15;53.93
36798;BME280;22748;8.426;99.512;2023-04-05T04:36:46;100694.03;;;33.18;53.86
36798;BME280;22748;8.426;99.512;2023-04-05T04:39:27;100678.63;;;33.18;54.14
36798;BME280;22748;8.426;99.512;2023-04-05T04:41:59;100689.56;;;33.24;54.25
36798;BME280;22748;8.426;99.512;2023-04-05T04:44:32;100682.28;;;33.24;54.11
36798;BME280;22748;8.426;99.512;2023-04-05T04:47:04;100680.75;;;33.16;54.12
36798;BME280;22748;8.426;99.512;2023-04-05T04:49:43;100675.69;;;33.20;53.79
36798;BME280;22748;8.426;99.512;2023-04-05T04:52:14;100674.25;;;33.29;53.38
36798;BME280;22748;8.426;99.512;2023-04-05T04:54:45;100674.97;;;33.36;53.39
36798;BME280;22748;8.426;99.512;2023-04-05T04:57:14;100674.38;;;33.34;53.87
36798;BME280;22748;8.426;99.512;2023-04-05T04:59:45;100667.91;;;33.35;53.58
36798;BME280;22748;8.426;99.512;2023-04-05T05:02:17;100665.09;;;33.30;53.19
36798;BME280;22748;8.426;99.512;2023-04-05T05:04:49;100653.09;;;33.26;53.07
36798;BME280;22748;8.426;99.512;2023-04-05T05:07:22;100647.69;;;33.26;53.46
36798;BME280;22748;8.426;99.512;2023-04-05T05:09:53;100640.97;;;33.29;53.22
36798;BME280;22748;8.426;99.512;2023-04-05T05:12:25;100645.66;;;33.33;53.54
36798;BME280;22748;8.426;99.512;2023-04-05T05:14:58;100636.59;;;33.39;53.47
36798;BME280;22748;8.426;99.512;2023-04-05T05:17:29;100628.56;;;33.45;52.90
36798;BME280;22748;8.426;99.512;2023-04-05T05:20:04;100624.88;;;33.51;52.69
36798;BME280;22748;8.426;99.512;2023-04-05T05:22:37;100627.13;;;33.54;52.45
36798;BME280;22748;8.426;99.512;2023-04-05T05:25:09;100613.81;;;33.52;52.43
36798;BME280;22748;8.426;99.512;2023-04-05T05:27:41;100611.69;;;33.54;52.71
36798;BME280;22748;8.426;99.512;2023-04-05T05:30:27;100609.13;;;33.48;53.16
36798;BME280;22748;8.426;99.512;2023-04-05T05:33:01;100611.34;;;33.51;52.42
36798;BME280;22748;8.426;99.512;2023-04-05T05:35:42;100599.69;;;33.50;52.51
36798;BME280;22748;8.426;99.512;2023-04-05T05:38:21;100597.94;;;33.56;52.67
36798;BME280;22748;8.426;99.512;2023-04-05T05:40:57;100586.25;;;33.55;52.94
36798;BME280;22748;8.426;99.512;2023-04-05T05:43:34;100582.50;;;33.56;53.31
36798;BME280;22748;8.426;99.512;2023-04-05T05:46:21;100578.72;;;33.57;53.07
36798;BME280;22748;8.426;99.512;2023-04-05T05:48:52;100567.44;;;33.60;52.28
36798;BME280;22748;8.426;99.512;2023-04-05T05:51:29;100565.63;;;33.66;52.07
36798;BME280;22748;8.426;99.512;2023-04-05T05:54:06;100563.63;;;33.73;52.07
36798;BME280;22748;8.426;99.512;2023-04-05T05:56:37;100552.84;;;33.78;51.58
36798;BME280;22748;8.426;99.512;2023-04-05T05:59:09;100540.94;;;33.79;51.60
36798;BME280;22748;8.426;99.512;2023-04-05T06:01:40;100533.41;;;33.81;51.43
36798;BME280;22748;8.426;99.512;2023-04-05T06:04:12;100526.94;;;33.83;51.51
36798;BME280;22748;8.426;99.512;2023-04-05T06:06:49;100517.72;;;33.84;51.37
36798;BME280;22748;8.426;99.512;2023-04-05T06:09:20;100523.13;;;33.84;51.42
36798;BME280;22748;8.426;99.512;2023-04-05T06:11:52;100522.09;;;33.85;51.21
36798;BME280;22748;8.426;99.512;2023-04-05T06:14:23;100502.03;;;33.86;51.11
36798;BME280;22748;8.426;99.512;2023-04-05T06:16:54;100497.94;;;33.83;50.65
36798;BME280;22748;8.426;99.512;2023-04-05T06:19:25;100480.31;;;33.80;50.97
36798;BME280;22748;8.426;99.512;2023-04-05T06:21:58;100479.31;;;33.87;50.71
36798;BME280;22748;8.426;99.512;2023-04-05T06:24:31;100464.22;;;33.91;50.58
36798;BME280;22748;8.426;99.512;2023-04-05T06:27:01;100461.25;;;33.92;50.82
36798;BME280;22748;8.426;99.512;2023-04-05T06:29:33;100462.91;;;33.93;50.28
36798;BME280;22748;8.426;99.512;2023-04-05T06:32:03;100462.09;;;33.93;49.75
36798;BME280;22748;8.426;99.512;2023-04-05T06:34:35;100469.63;;;33.91;50.00
36798;BME280;22748;8.426;99.512;2023-04-05T06:37:11;100461.00;;;33.94;50.29
36798;BME280;22748;8.426;99.512;2023-04-05T06:39:42;100452.88;;;33.94;50.44
36798;BME280;22748;8.426;99.512;2023-04-05T06:42:16;100445.09;;;33.97;49.90
36798;BME280;22748;8.426;99.512;2023-04-05T06:44:46;100437.53;;;33.99;49.81
36798;BME280;22748;8.426;99.512;2023-04-05T06:47:17;100433.50;;;34.02;49.39
36798;BME280;22748;8.426;99.512;2023-04-05T06:49:47;100420.53;;;34.04;48.03
36798;BME280;22748;8.426;99.512;2023-04-05T06:52:19;100401.28;;;34.06;47.83
36798;BME280;22748;8.426;99.512;2023-04-05T06:55:01;100392.09;;;34.07;48.36
36798;BME280;22748;8.426;99.512;2023-04-05T06:57:31;100392.91;;;34.07;48.61
36798;BME280;22748;8.426;99.512;2023-04-05T07:00:08;100392.66;;;34.09;48.75
36798;BME280;22748;8.426;99.512;2023-04-05T07:02:39;100399.31;;;34.01;49.41
36798;BME280;22748;8.426;99.512;2023-04-05T07:05:09;100391.75;;;34.03;49.74
36798;BME280;22748;8.426;99.512;2023-04-05T07:07:43;100388.47;;;34.01;49.61
36798;BME280;22748;8.426;99.512;2023-04-05T07:10:15;100383.06;;;34.01;50.15
36798;BME280;22748;8.426;99.512;2023-04-05T07:12:46;100367.91;;;34.00;49.98
36798;BME280;22748;8.426;99.512;2023-04-05T07:15:17;100357.63;;;34.02;50.18
36798;BME280;22748;8.426;99.512;2023-04-05T07:17:48;100351.69;;;34.05;50.06
36798;BME280;22748;8.426;99.512;2023-04-05T07:20:18;100351.41;;;34.01;50.04
36798;BME280;22748;8.426;99.512;2023-04-05T07:22:51;100354.16;;;34.07;49.46
36798;BME280;22748;8.426;99.512;2023-04-05T07:25:21;100339.28;;;34.09;49.05
36798;BME280;22748;8.426;99.512;2023-04-05T07:27:52;100325.16;;;34.07;48.56
36798;BME280;22748;8.426;99.512;2023-04-05T07:30:24;100320.91;;;34.11;48.12
36798;BME280;22748;8.426;99.512;2023-04-05T07:32:54;100314.50;;;34.17;47.96
36798;BME280;22748;8.426;99.512;2023-04-05T07:35:25;100322.38;;;34.19;47.67
36798;BME280;22748;8.426;99.512;2023-04-05T07:37:59;100324.59;;;34.05;48.02
36798;BME280;22748;8.426;99.512;2023-04-05T07:40:31;100314.28;;;34.02;48.71
36798;BME280;22748;8.426;99.512;2023-04-05T07:43:01;100297.59;;;34.10;48.90
36798;BME280;22748;8.426;99.512;2023-04-05T07:45:32;100294.13;;;34.15;48.57
36798;BME280;22748;8.426;99.512;2023-04-05T07:48:03;100301.81;;;34.23;48.66
36798;BME280;22748;8.426;99.512;2023-04-05T07:50:34;100303.91;;;34.16;47.64
36798;BME280;22748;8.426;99.512;2023-04-05T07:53:19;100301.69;;;34.13;48.07
36798;BME280;22748;8.426;99.512;2023-04-05T07:55:50;100299.38;;;34.21;48.10
36798;BME280;22748;8.426;99.512;2023-04-05T07:58:20;100285.06;;;34.26;48.24
36798;BME280;22748;8.426;99.512;2023-04-05T08:00:59;100275.59;;;34.29;48.21
36798;BME280;22748;8.426;99.512;2023-04-05T08:03:31;100266.84;;;34.21;46.38
36798;BME280;22748;8.426;99.512;2023-04-05T08:06:09;100262.47;;;34.20;46.45
36798;BME280;22748;8.426;99.512;2023-04-05T08:08:46;100259.19;;;34.18;47.59
36798;BME280;22748;8.426;99.512;2023-04-05T08:11:19;100254.91;;;34.22;46.72
36798;BME280;22748;8.426;99.512;2023-04-05T08:13:54;100255.72;;;34.23;46.60
36798;BME280;22748;8.426;99.512;2023-04-05T08:16:25;100253.09;;;34.28;46.83
36798;BME280;22748;8.426;99.512;2023-04-05T08:18:58;100251.22;;;34.34;47.12
36798;BME280;22748;8.426;99.512;2023-04-05T08:21:32;100244.75;;;34.35;47.69
36798;BME280;22748;8.426;99.512;2023-04-05T08:24:06;100236.00;;;34.28;48.37
36798;BME280;22748;8.426;99.512;2023-04-05T08:26:38;100232.75;;;34.26;48.86
36798;BME280;22748;8.426;99.512;2023-04-05T08:29:10;100225.88;;;33.96;49.99
36798;BME280;22748;8.426;99.512;2023-04-05T08:31:41;100245.59;;;33.69;51.31
36798;BME280;22748;8.426;99.512;2023-04-05T08:34:12;100241.75;;;33.65;51.75
36798;BME280;22748;8.426;99.512;2023-04-05T08:36:44;100236.66;;;33.52;51.87
36798;BME280;22748;8.426;99.512;2023-04-05T08:39:16;100226.47;;;33.20;51.73
36798;BME280;22748;8.426;99.512;2023-04-05T08:41:56;100225.72;;;33.08;52.35
36798;BME280;22748;8.426;99.512;2023-04-05T08:44:39;100229.59;;;33.12;52.34
36798;BME280;22748;8.426;99.512;2023-04-05T08:47:10;100231.03;;;33.03;51.73
36798;BME280;22748;8.426;99.512;2023-04-05T08:49:49;100236.13;;;32.82;51.98
36798;BME280;22748;8.426;99.512;2023-04-05T08:52:20;100225.31;;;32.82;52.02
36798;BME280;22748;8.426;99.512;2023-04-05T08:54:56;100219.56;;;32.78;51.57
36798;BME280;22748;8.426;99.512;2023-04-05T08:57:28;100226.78;;;32.90;51.68
36798;BME280;22748;8.426;99.512;2023-04-05T09:00:01;100223.94;;;32.79;51.50
36798;BME280;22748;8.426;99.512;2023-04-05T09:02:33;100219.16;;;32.70;51.39
36798;BME280;22748;8.426;99.512;2023-04-05T09:05:09;100214.16;;;32.78;51.45
36798;BME280;22748;8.426;99.512;2023-04-05T09:07:41;100210.88;;;32.93;51.57
36798;BME280;22748;8.426;99.512;2023-04-05T09:10:18;100201.84;;;33.05;50.89
36798;BME280;22748;8.426;99.512;2023-04-05T09:12:51;100192.44;;;33.07;51.25
36798;BME280;22748;8.426;99.512;2023-04-05T09:15:23;100185.63;;;33.22;50.45
36798;BME280;22748;8.426;99.512;2023-04-05T09:17:56;100172.25;;;33.32;50.09
36798;BME280;22748;8.426;99.512;2023-04-05T09:20:27;100170.94;;;33.34;49.96
36798;BME280;22748;8.426;99.512;2023-04-05T09:22:58;100179.84;;;33.35;49.74
36798;BME280;22748;8.426;99.512;2023-04-05T09:25:39;100176.97;;;33.42;49.87
36798;BME280;22748;8.426;99.512;2023-04-05T09:28:10;100183.28;;;33.47;49.79
36798;BME280;22748;8.426;99.512;2023-04-05T09:30:45;100186.28;;;33.51;49.71
36798;BME280;22748;8.426;99.512;2023-04-05T09:33:19;100194.97;;;33.53;49.64
36798;BME280;22748;8.426;99.512;2023-04-05T09:35:50;100210.75;;;33.56;49.86
36798;BME280;22748;8.426;99.512;2023-04-05T09:38:41;100226.50;;;33.42;49.92
36798;BME280;22748;8.426;99.512;2023-04-05T09:41:15;100237.66;;;33.46;50.24
36798;BME280;22748;8.426;99.512;2023-04-05T09:43:46;100253.16;;;33.50;50.22
36798;BME280;22748;8.426;99.512;2023-04-05T09:46:29;100275.16;;;33.54;49.69
36798;BME280;22748;8.426;99.512;2023-04-05T09:49:02;100279.72;;;33.53;48.94
36798;BME280;22748;8.426;99.512;2023-04-05T09:51:34;100278.91;;;33.53;48.87
36798;BME280;22748;8.426;99.512;2023-04-05T09:54:05;100275.00;;;33.44;48.82
36798;BME280;22748;8.426;99.512;2023-04-05T09:56:40;100267.91;;;33.43;49.03
36798;BME280;22748;8.426;99.512;2023-04-05T09:59:24;100274.66;;;33.40;48.86
36798;BME280;22748;8.426;99.512;2023-04-05T10:01:56;100271.38;;;33.38;48.51
36798;BME280;22748;8.426;99.512;2023-04-05T10:04:38;100275.16;;;33.37;48.52
36798;BME280;22748;8.426;99.512;2023-04-05T10:07:10;100264.00;;;33.33;48.47
36798;BME280;22748;8.426;99.512;2023-04-05T10:09:43;100266.72;;;33.33;48.07
36798;BME280;22748;8.426;99.512;2023-04-05T10:12:23;100276.97;;;33.31;48.14
36798;BME280;22748;8.426;99.512;2023-04-05T10:14:55;100285.34;;;33.30;48.13
36798;BME280;22748;8.426;99.512;2023-04-05T10:17:26;100287.88;;;33.19;48.26
36798;BME280;22748;8.426;99.512;2023-04-05T10:20:11;100310.00;;;33.16;47.54
36798;BME280;22748;8.426;99.512;2023-04-05T10:22:53;100316.50;;;33.15;47.49
36798;BME280;22748;8.426;99.512;2023-04-05T10:25:30;100322.06;;;33.09;47.43
36798;BME280;22748;8.426;99.512;2023-04-05T10:28:09;100328.81;;;33.06;47.37
36798;BME280;22748;8.426;99.512;2023-04-05T10:30:42;100334.66;;;33.03;47.48
36798;BME280;22748;8.426;99.512;2023-04-05T10:33:19;100359.84;;;33.04;47.65
36798;BME280;22748;8.426;99.512;2023-04-05T10:36:08;100369.50;;;32.99;47.62
36798;BME280;22748;8.426;99.512;2023-04-05T10:38:54;100367.84;;;32.98;47.55
36798;BME280;22748;8.426;99.512;2023-04-05T10:41:35;100365.53;;;32.73;47.55
36798;BME280;22748;8.426;99.512;2023-04-05T10:44:09;100370.22;;;32.66;47.52
36798;BME280;22748;8.426;99.512;2023-04-05T10:46:41;100371.06;;;32.67;47.65
36798;BME280;22748;8.426;99.512;2023-04-05T10:49:21;100371.91;;;32.55;47.77
36798;BME280;22748;8.426;99.512;2023-04-05T10:51:52;100384.38;;;32.56;48.23
36798;BME280;22748;8.426;99.512;2023-04-05T10:54:23;100387.19;;;32.62;48.13
36798;BME280;22748;8.426;99.512;2023-04-05T10:56:55;100404.00;;;32.52;48.07
36798;BME280;22748;8.426;99.512;2023-04-05T10:59:29;100404.47;;;32.49;48.45
36798;BME280;22748;8.426;99.512;2023-04-05T11:02:00;100407.06;;;32.55;48.50
36798;BME280;22748;8.426;99.512;2023-04-05T11:04:33;100405.19;;;32.56;48.45
36798;BME280;22748;8.426;99.512;2023-04-05T11:07:19;100406.25;;;32.55;48.17
36798;BME280;22748;8.426;99.512;2023-04-05T11:09:57;100413.41;;;32.49;48.67
36798;BME280;22748;8.426;99.512;2023-04-05T11:15:38;100406.53;;;32.30;49.15
36798;BME280;22748;8.426;99.512;2023-04-05T11:18:10;100416.16;;;32.26;49.09
36798;BME280;22748;8.426;99.512;2023-04-05T11:20:43;100413.44;;;32.26;49.18
36798;BME280;22748;8.426;99.512;2023-04-05T11:23:15;100414.50;;;32.25;49.42
36798;BME280;22748;8.426;99.512;2023-04-05T11:25:50;100416.97;;;32.26;49.29
36798;BME280;22748;8.426;99.512;2023-04-05T11:28:27;100421.56;;;32.26;49.66
36798;BME280;22748;8.426;99.512;2023-04-05T11:31:13;100423.44;;;32.25;49.44
36798;BME280;22748;8.426;99.512;2023-04-05T11:34:00;100431.78;;;32.24;49.46
36798;BME280;22748;8.426;99.512;2023-04-05T11:36:43;100429.78;;;32.19;49.60
36798;BME280;22748;8.426;99.512;2023-04-05T11:39:27;100439.53;;;32.20;49.31
36798;BME280;22748;8.426;99.512;2023-04-05T11:42:00;100441.66;;;32.18;49.33
36798;BME280;22748;8.426;99.512;2023-04-05T11:44:41;100435.41;;;32.17;49.80
36798;BME280;22748;8.426;99.512;2023-04-05T11:47:15;100442.22;;;32.20;50.02
36798;BME280;22748;8.426;99.512;2023-04-05T11:49:49;100443.03;;;32.21;49.49
36798;BME280;22748;8.426;99.512;2023-04-05T11:52:21;100452.81;;;32.22;49.59
36798;BME280;22748;8.426;99.512;2023-04-05T11:54:53;100449.63;;;32.25;49.61
36798;BME280;22748;8.426;99.512;2023-04-05T11:57:24;100455.03;;;32.25;49.76
36798;BME280;22748;8.426;99.512;2023-04-05T11:59:56;100462.09;;;32.26;50.05
36798;BME280;22748;8.426;99.512;2023-04-05T12:02:34;100464.78;;;32.26;50.01
36798;BME280;22748;8.426;99.512;2023-04-05T12:05:07;100466.78;;;32.30;50.02
36798;BME280;22748;8.426;99.512;2023-04-05T12:07:37;100478.19;;;32.32;49.78
36798;BME280;22748;8.426;99.512;2023-04-05T12:10:09;100491.22;;;32.35;50.14
36798;BME280;22748;8.426;99.512;2023-04-05T12:12:43;100493.47;;;32.38;49.81
36798;BME280;22748;8.426;99.512;2023-04-05T12:15:15;100495.91;;;32.40;50.12
36798;BME280;22748;8.426;99.512;2023-04-05T12:17:48;100498.88;;;32.38;49.98
36798;BME280;22748;8.426;99.512;2023-04-05T12:20:22;100515.66;;;32.41;50.26
36798;BME280;22748;8.426;99.512;2023-04-05T12:22:54;100522.94;;;32.40;50.32
36798;BME280;22748;8.426;99.512;2023-04-05T12:25:23;100528.34;;;32.40;50.10
36798;BME280;22748;8.426;99.512;2023-04-05T12:27:54;100531.41;;;32.44;50.04
36798;BME280;22748;8.426;99.512;2023-04-05T12:30:27;100534.81;;;32.39;50.33
36798;BME280;22748;8.426;99.512;2023-04-05T12:33:08;100534.59;;;32.41;50.45
36798;BME280;22748;8.426;99.512;2023-04-05T12:35:40;100541.63;;;32.42;50.40
36798;BME280;22748;8.426;99.512;2023-04-05T12:38:14;100543.88;;;32.45;50.66
36798;BME280;22748;8.426;99.512;2023-04-05T12:40:45;100545.50;;;32.46;50.36
36798;BME280;22748;8.426;99.512;2023-04-05T12:43:17;100552.53;;;32.47;50.63
36798;BME280;22748;8.426;99.512;2023-04-05T12:45:49;100549.63;;;32.48;50.47
36798;BME280;22748;8.426;99.512;2023-04-05T12:48:26;100544.69;;;32.45;50.22
36798;BME280;22748;8.426;99.512;2023-04-05T12:50:57;100543.03;;;32.44;50.31
36798;BME280;22748;8.426;99.512;2023-04-05T12:53:28;100541.41;;;32.43;50.48
36798;BME280;22748;8.426;99.512;2023-04-05T12:56:00;100551.63;;;32.41;50.57
36798;BME280;22748;8.426;99.512;2023-04-05T12:58:35;100551.03;;;32.39;50.51
36798;BME280;22748;8.426;99.512;2023-04-05T13:01:07;100565.59;;;32.38;50.64
36798;BME280;22748;8.426;99.512;2023-04-05T13:03:40;100576.88;;;32.35;51.21
36798;BME280;22748;8.426;99.512;2023-04-05T13:06:12;100583.59;;;32.32;51.31
36798;BME280;22748;8.426;99.512;2023-04-05T13:08:43;100586.50;;;32.31;51.34
36798;BME280;22748;8.426;99.512;2023-04-05T13:11:14;100615.91;;;32.27;51.47
36798;BME280;22748;8.426;99.512;2023-04-05T13:13:48;100628.13;;;32.30;51.39
36798;BME280;22748;8.426;99.512;2023-04-05T13:16:21;100633.03;;;32.33;51.40
36798;BME280;22748;8.426;99.512;2023-04-05T13:18:57;100632.44;;;32.31;51.16
36798;BME280;22748;8.426;99.512;2023-04-05T13:21:30;100627.63;;;32.33;51.44
36798;BME280;22748;8.426;99.512;2023-04-05T13:24:02;100627.63;;;32.33;51.08
36798;BME280;22748;8.426;99.512;2023-04-05T13:26:33;100640.13;;;32.34;50.94
36798;BME280;22748;8.426;99.512;2023-04-05T13:29:03;100639.53;;;32.32;51.27